Time;durP1;ratioP1;P1;durP2;ratioP2;P2;SDS_P1;SDS_P2;PMS_P1;PMS_P2;Temp;Humidity;BMP_temperature;BMP_pressure;BME280_temperature;BME280_humidity;BME280_pressure;Samples;Min_cycle;Max_cycle;Signal;HPM_P1;HPM_P2
2023/06/06 00:02:05;;;;;;;8.55;3.88;;;;;;;16.10;74.18;97948.72;10326054;28;20073;-52
2023/06/06 00:07:08;;;;;;;6.93;3.17;;;;;;;15.70;71.85;97881.44;10325009;28;20061;-51
2023/06/06 00:12:12;;;;;;;5.80;3.00;;;;;;;16.19;68.84;97940.69;10325764;28;20342;-51
2023/06/06 00:17:12;;;;;;;5.10;3.00;;;;;;;16.28;67.50;97923.94;10325524;28;20660;-52
2023/06/06 00:22:11;;;;;;;5.53;2.72;;;;;;;16.25;65.10;97914.34;10325290;28;20124;-52
2023/06/06 00:27:10;;;;;;;5.68;2.60;;;;;;;16.20;63.43;97908.34;10325773;28;20044;-52
2023/06/06 00:32:09;;;;;;;6.88;3.00;;;;;;;16.35;62.33;97922.91;10324257;28;20041;-53
2023/06/06 00:37:08;;;;;;;6.53;2.78;;;;;;;16.41;61.11;97925.38;10324025;28;20531;-52
2023/06/06 00:42:07;;;;;;;7.22;2.83;;;;;;;16.51;61.31;97926.91;10326434;28;20045;-52
2023/06/06 00:47:06;;;;;;;7.70;2.92;;;;;;;16.58;60.48;97925.00;10326836;28;20517;-52
2023/06/06 00:52:06;;;;;;;5.70;2.75;;;;;;;16.66;60.90;97944.03;10327657;28;20512;-53
2023/06/06 00:57:07;;;;;;;9.45;4.00;;;;;;;16.32;67.19;97912.47;10327187;28;20076;-52
2023/06/06 01:02:10;;;;;;;7.70;3.83;;;;;;;16.35;69.18;97920.28;10327271;28;20072;-53
2023/06/06 01:07:12;;;;;;;7.18;3.80;;;;;;;16.39;70.49;97942.00;10326936;28;20072;-52
2023/06/06 01:12:48;;;;;;;5.85;3.92;;;;;;;16.33;69.67;97935.16;10327232;28;20076;-52
2023/06/06 01:17:49;;;;;;;5.93;3.33;;;;;;;16.28;68.80;97927.41;10327202;28;20068;-51
2023/06/06 01:22:49;;;;;;;3.58;2.60;;;;;;;16.26;65.26;97923.94;10326575;28;20076;-50
2023/06/06 01:27:53;;;;;;;6.22;2.63;;;;;;;16.31;63.76;97921.22;10327717;28;20069;-51
2023/06/06 01:33:10;;;;;;;4.82;2.90;;;;;;;16.38;61.32;97925.44;10328000;28;20077;-51
2023/06/06 01:38:25;;;;;;;6.03;2.95;;;;;;;16.48;63.23;97920.84;10331683;28;20073;-52
2023/06/06 01:43:26;;;;;;;4.85;2.70;;;;;;;16.47;61.31;97920.00;10331236;28;20065;-53
2023/06/06 01:48:25;;;;;;;5.68;2.78;;;;;;;16.50;61.16;97917.31;10330590;28;20507;-53
2023/06/06 01:53:24;;;;;;;7.90;3.70;;;;;;;16.53;66.30;97924.22;10330192;28;20077;-53
2023/06/06 01:58:23;;;;;;;6.75;3.30;;;;;;;16.43;65.70;97920.97;10330382;28;20033;-52
2023/06/06 02:03:22;;;;;;;7.40;3.92;;;;;;;16.41;64.68;97920.13;10330119;28;20120;-52
2023/06/06 02:08:21;;;;;;;6.20;3.50;;;;;;;16.32;64.52;97919.47;10329353;28;20113;-52
2023/06/06 02:13:20;;;;;;;14.68;3.67;;;;;;;16.29;62.51;97928.25;10329332;28;20033;-51
2023/06/06 02:18:19;;;;;;;6.10;3.22;;;;;;;16.38;62.72;97935.06;10329754;28;20486;-52
2023/06/06 02:23:19;;;;;;;5.10;2.50;;;;;;;16.25;62.71;97931.81;10329660;28;20077;-50
2023/06/06 02:28:20;;;;;;;5.43;2.80;;;;;;;15.92;61.22;97909.81;10329585;28;20129;-52
2023/06/06 02:33:19;;;;;;;7.05;2.80;;;;;;;16.09;60.25;97940.00;10328650;28;21265;-53
2023/06/06 02:38:18;;;;;;;6.53;2.72;;;;;;;15.94;59.71;97942.91;10329012;28;20139;-52
2023/06/06 02:43:17;;;;;;;8.82;3.22;;;;;;;15.95;59.75;97946.38;10328943;28;20123;-52
2023/06/06 02:48:16;;;;;;;6.88;2.50;;;;;;;15.88;59.61;97948.28;10327461;28;20052;-52
2023/06/06 02:53:15;;;;;;;6.20;2.95;;;;;;;15.85;59.44;97946.56;10328557;28;20092;-51
2023/06/06 02:58:30;;;;;;;6.07;2.60;;;;;;;15.78;59.25;97958.00;10328109;28;20037;-51
2023/06/06 03:03:30;;;;;;;6.70;2.58;;;;;;;15.41;59.48;97916.84;10327800;28;20549;-52
2023/06/06 03:08:29;;;;;;;5.53;2.40;;;;;;;15.66;59.27;97960.84;10328584;28;20069;-52
2023/06/06 03:13:27;;;;;;;5.40;2.45;;;;;;;15.59;60.08;97965.34;10327397;28;20056;-51
2023/06/06 03:18:26;;;;;;;6.20;2.55;;;;;;;15.56;59.53;97965.41;10327131;28;20104;-52
2023/06/06 03:23:25;;;;;;;4.00;2.75;;;;;;;15.57;59.45;97951.41;10327207;28;20064;-52
2023/06/06 03:28:24;;;;;;;3.70;2.25;;;;;;;15.58;59.96;97953.16;10327034;28;20120;-52
2023/06/06 03:33:23;;;;;;;3.90;2.28;;;;;;;15.63;59.78;97950.47;10326370;28;20045;-53
2023/06/06 03:38:22;;;;;;;5.47;2.60;;;;;;;15.60;59.33;97948.78;10326667;28;20468;-53
2023/06/06 03:43:21;;;;;;;5.35;2.50;;;;;;;15.76;59.43;97953.69;10328889;28;20454;-53
2023/06/06 03:48:20;;;;;;;;;;;;;;;15.79;59.20;97945.84;10329430;28;20041;-52
2023/06/06 03:53:19;;;;;;;3.20;2.37;;;;;;;15.75;59.26;97936.28;10329537;28;20018;-53
2023/06/06 03:58:20;;;;;;;4.78;2.67;;;;;;;15.90;60.09;97940.38;10328507;28;20073;-52
2023/06/06 04:03:20;;;;;;;5.15;3.15;;;;;;;15.91;60.15;97945.59;10328575;28;20077;-53
2023/06/06 04:08:19;;;;;;;7.05;3.95;;;;;;;16.17;66.32;97952.09;10328694;28;20511;-53
2023/06/06 04:13:19;;;;;;;12.43;5.40;;;;;;;16.27;70.14;97948.38;10328328;28;20060;-53
2023/06/06 04:18:18;;;;;;;14.07;5.90;;;;;;;16.41;73.76;97959.41;10328861;28;20065;-54
2023/06/06 04:23:17;;;;;;;8.55;4.90;;;;;;;16.60;74.73;97956.41;10328771;28;20045;-53
2023/06/06 04:28:19;;;;;;;9.48;3.58;;;;;;;16.32;70.46;97909.84;10327786;28;20069;-53
2023/06/06 04:33:18;;;;;;;8.43;4.80;;;;;;;16.73;72.39;97952.63;10327966;28;20100;-53
2023/06/06 04:38:20;;;;;;;7.65;4.55;;;;;;;16.85;68.64;97962.84;10328642;28;20089;-53
2023/06/06 04:43:23;;;;;;;7.80;4.15;;;;;;;16.93;69.89;97960.94;10324921;28;20076;-53
2023/06/06 04:48:25;;;;;;;9.48;4.65;;;;;;;17.11;70.64;97969.25;10324019;28;20112;-53
2023/06/06 04:53:25;;;;;;;8.77;4.88;;;;;;;17.23;71.31;97968.94;10324862;28;20080;-53
2023/06/06 04:58:25;;;;;;;9.25;5.00;;;;;;;17.23;71.88;97965.47;10323802;28;20112;-50
2023/06/06 05:03:27;;;;;;;11.70;5.43;;;;;;;17.34;73.24;97963.44;10324008;28;20073;-51
2023/06/06 05:08:31;;;;;;;11.10;5.50;;;;;;;17.49;75.09;97967.44;10323987;28;20076;-53
2023/06/06 05:13:30;;;;;;;7.60;4.28;;;;;;;17.65;71.98;97960.91;10329936;28;21178;-53
2023/06/06 05:18:30;;;;;;;14.48;4.65;;;;;;;17.91;72.11;97964.63;10333372;28;20091;-52
2023/06/06 05:23:30;;;;;;;5.30;3.05;;;;;;;18.28;63.95;97955.72;10331830;28;20081;-53
2023/06/06 05:28:29;;;;;;;6.05;3.08;;;;;;;18.49;61.14;97960.34;10331201;28;20468;-52
2023/06/06 05:33:31;;;;;;;7.70;3.15;;;;;;;18.81;61.12;97961.19;10330991;28;20408;-52
2023/06/06 05:38:30;;;;;;;8.13;3.42;;;;;;;19.11;62.45;97969.00;10327965;28;20489;-53
2023/06/06 05:43:31;;;;;;;8.35;3.45;;;;;;;19.29;60.49;97973.66;10332839;28;20409;-53
2023/06/06 05:48:32;;;;;;;6.88;3.75;;;;;;;19.35;61.91;97975.25;10329534;28;20120;-50
2023/06/06 05:53:31;;;;;;;6.43;3.17;;;;;;;19.41;57.89;97954.84;10330567;28;20084;-50
2023/06/06 05:58:30;;;;;;;5.88;2.92;;;;;;;19.45;58.82;97967.00;10329964;28;20132;-52
2023/06/06 06:03:29;;;;;;;5.57;3.20;;;;;;;19.59;56.82;97970.97;10331577;28;20123;-49
2023/06/06 06:08:28;;;;;;;7.70;3.42;;;;;;;19.73;55.53;97960.81;10331402;28;20071;-53
2023/06/06 06:13:27;;;;;;;7.82;3.70;;;;;;;19.90;56.70;97959.38;10330327;28;20152;-51
2023/06/06 06:18:26;;;;;;;7.03;3.40;;;;;;;20.02;59.38;97959.78;10328678;28;20100;-53
2023/06/06 06:23:26;;;;;;;5.97;3.58;;;;;;;20.17;56.60;97958.38;10328979;28;20103;-50
2023/06/06 06:28:25;;;;;;;6.72;4.45;;;;;;;20.16;59.03;97914.50;10328869;28;20357;-52
2023/06/06 06:33:24;;;;;;;9.50;4.35;;;;;;;20.50;61.51;97952.81;10329376;28;20599;-51
2023/06/06 06:38:24;;;;;;;6.60;3.97;;;;;;;20.68;59.04;97960.03;10328860;28;20120;-53
2023/06/06 06:43:23;;;;;;;10.40;3.90;;;;;;;20.73;58.30;97953.69;10331384;28;20080;-53
2023/06/06 06:48:22;;;;;;;7.80;4.28;;;;;;;20.94;57.00;97950.25;10331198;28;20046;-51
2023/06/06 06:53:25;;;;;;;8.73;4.18;;;;;;;21.02;57.17;97940.22;10330697;28;20053;-53
2023/06/06 06:58:33;;;;;;;6.55;4.03;;;;;;;21.08;58.95;97936.50;10330366;28;20061;-52
2023/06/06 07:03:35;;;;;;;7.97;4.43;;;;;;;21.12;57.64;97941.59;10331400;28;20084;-52
2023/06/06 07:08:34;;;;;;;6.72;4.20;;;;;;;21.17;55.24;97929.97;10330667;28;20061;-50
2023/06/06 07:13:33;;;;;;;12.55;4.65;;;;;;;21.29;57.24;97932.16;10332447;28;20041;-50
2023/06/06 07:18:32;;;;;;;12.48;5.10;;;;;;;21.31;57.04;97927.63;10330518;28;20519;-52
2023/06/06 07:23:31;;;;;;;9.38;4.07;;;;;;;21.42;55.56;97929.84;10330386;28;20108;-51
2023/06/06 07:28:30;;;;;;;6.53;4.05;;;;;;;21.51;53.57;97935.59;10329738;28;20083;-51
2023/06/06 07:33:30;;;;;;;8.77;4.30;;;;;;;21.59;54.47;97934.41;10330884;28;20610;-53
2023/06/06 07:38:29;;;;;;;8.70;3.95;;;;;;;21.81;53.25;97929.91;10330120;28;20064;-52
2023/06/06 07:43:28;;;;;;;10.20;4.43;;;;;;;22.09;53.12;97926.09;10326545;28;20109;-50
2023/06/06 07:48:27;;;;;;;6.88;3.83;;;;;;;22.29;53.29;97923.38;10324953;28;20045;-50
2023/06/06 07:53:25;;;;;;;6.28;3.80;;;;;;;22.49;50.62;97925.13;10325721;28;20108;-52
2023/06/06 07:58:27;;;;;;;8.00;4.20;;;;;;;22.74;50.67;97927.50;10325297;28;20136;-51
2023/06/06 08:03:26;;;;;;;6.07;3.67;;;;;;;23.00;48.02;97928.91;10326512;28;20128;-52
2023/06/06 08:08:26;;;;;;;7.35;3.83;;;;;;;22.89;49.60;97930.34;10323425;28;20104;-53
2023/06/06 08:13:25;;;;;;;6.63;3.65;;;;;;;22.84;49.82;97938.50;10325396;28;20086;-51
2023/06/06 08:18:24;;;;;;;7.45;3.47;;;;;;;22.73;48.79;97932.84;10324537;28;20698;-52
2023/06/06 08:23:23;;;;;;;6.78;3.90;;;;;;;22.96;47.57;97934.41;10321818;28;20516;-51
2023/06/06 08:28:23;;;;;;;6.82;4.10;;;;;;;22.93;48.82;97901.03;10325291;28;20112;-53
2023/06/06 08:33:22;;;;;;;7.43;3.72;;;;;;;23.20;48.78;97927.91;10325223;28;20061;-52
2023/06/06 08:38:21;;;;;;;7.50;4.18;;;;;;;23.38;47.42;97920.84;10326873;28;20021;-52
2023/06/06 08:43:24;;;;;;;5.85;3.58;;;;;;;23.73;47.34;97925.34;10324827;28;20049;-50
2023/06/06 08:48:28;;;;;;;7.32;3.53;;;;;;;24.16;47.23;97923.91;10337499;28;20085;-51
2023/06/06 08:53:27;;;;;;;6.82;3.50;;;;;;;24.40;44.34;97894.38;10336215;28;20080;-51
2023/06/06 08:58:29;;;;;;;6.85;3.47;;;;;;;24.49;43.30;97921.25;10336965;28;20145;-51
2023/06/06 09:03:31;;;;;;;4.90;3.55;;;;;;;24.52;43.00;97916.72;10338857;28;20631;-52
2023/06/06 09:08:30;;;;;;;5.75;4.18;;;;;;;24.42;44.46;97917.22;10337903;28;20108;-52
2023/06/06 09:13:29;;;;;;;7.80;4.22;;;;;;;24.30;44.16;97903.78;10337421;28;20069;-52
2023/06/06 09:18:28;;;;;;;6.43;4.40;;;;;;;24.23;44.57;97911.22;10337622;28;20128;-51
2023/06/06 09:23:29;;;;;;;9.57;3.55;;;;;;;24.04;42.21;97914.81;10337164;28;20120;-51
2023/06/06 09:28:37;;;;;;;6.00;3.92;;;;;;;23.89;42.49;97915.66;10336770;28;20145;-52
2023/06/06 09:33:39;;;;;;;6.43;3.30;;;;;;;23.95;41.66;97870.25;10337951;28;20560;-53
2023/06/06 09:38:38;;;;;;;5.72;3.97;;;;;;;24.36;42.72;97899.00;10336205;28;20132;-52
2023/06/06 09:43:37;;;;;;;7.68;4.10;;;;;;;24.62;43.78;97894.06;10339543;28;20064;-53
2023/06/06 09:48:36;;;;;;;6.38;3.63;;;;;;;24.84;42.78;97901.66;10334977;28;20099;-51
2023/06/06 09:53:35;;;;;;;6.93;3.70;;;;;;;24.63;41.03;97895.78;10338643;28;20041;-52
2023/06/06 09:58:36;;;;;;;6.13;3.80;;;;;;;24.56;42.70;97895.25;10333415;28;20093;-51
2023/06/06 10:03:37;;;;;;;5.72;3.92;;;;;;;24.58;44.69;97896.03;10332929;28;20457;-52
2023/06/06 10:08:37;;;;;;;7.43;3.88;;;;;;;24.63;45.35;97885.16;10330492;28;20073;-50
2023/06/06 10:13:37;;;;;;;6.13;3.92;;;;;;;24.52;45.55;97888.41;10332812;28;20068;-50
2023/06/06 10:18:37;;;;;;;6.03;3.45;;;;;;;24.59;45.25;97867.69;10332621;28;20445;-52
2023/06/06 10:23:36;;;;;;;5.85;3.75;;;;;;;24.69;44.99;97863.59;10332224;28;20065;-52
2023/06/06 10:28:44;;;;;;;5.30;3.97;;;;;;;24.97;46.43;97859.41;10331798;28;20040;-52
2023/06/06 10:33:55;;;;;;;6.00;3.75;;;;;;;24.96;46.16;97839.94;10333132;28;20069;-52
2023/06/06 10:39:22;;;;;;;6.10;3.90;;;;;;;25.11;45.89;97843.50;10332032;28;20076;-52
2023/06/06 10:44:35;;;;;;;7.75;4.28;;;;;;;25.31;45.77;97852.94;10326221;28;20108;-51
2023/06/06 10:50:02;;;;;;;5.68;4.10;;;;;;;25.43;44.28;97832.75;10321871;28;20120;-51
2023/06/06 10:55:01;;;;;;;7.22;3.72;;;;;;;25.26;45.18;97821.34;10333639;28;20068;-52
2023/06/06 11:00:01;;;;;;;8.40;3.83;;;;;;;25.42;45.12;97831.06;10322523;28;20029;-52
2023/06/06 11:05:00;;;;;;;7.25;3.80;;;;;;;25.51;44.57;97788.84;10328214;28;20076;-53
2023/06/06 11:09:59;;;;;;;13.68;4.50;;;;;;;25.94;44.27;97817.25;10326940;28;20538;-52
2023/06/06 11:15:04;;;;;;;6.55;3.92;;;;;;;25.89;44.35;97816.69;10326673;28;20099;-52
2023/06/06 11:20:03;;;;;;;7.32;3.92;;;;;;;26.05;43.74;97805.97;10326348;28;20492;-53
2023/06/06 11:25:03;;;;;;;6.47;4.10;;;;;;;25.97;44.45;97801.09;10326293;28;20068;-52
2023/06/06 11:30:04;;;;;;;7.82;4.22;;;;;;;25.91;43.05;97804.16;10326376;28;20544;-52
2023/06/06 11:35:07;;;;;;;6.15;4.47;;;;;;;25.88;44.35;97802.56;10327023;28;20072;-52
2023/06/06 11:40:11;;;;;;;5.35;4.05;;;;;;;26.08;44.37;97798.63;10325761;28;20113;-52
2023/06/06 11:45:17;;;;;;;6.28;3.88;;;;;;;26.23;43.21;97791.53;10326208;28;20473;-52
2023/06/06 11:50:26;;;;;;;5.30;3.95;;;;;;;26.01;46.04;97789.34;10324223;28;20103;-52
2023/06/06 11:55:38;;;;;;;7.88;4.22;;;;;;;26.39;47.55;97783.38;10324441;28;20072;-53
2023/06/06 12:00:37;;;;;;;6.22;4.18;;;;;;;26.04;47.57;97797.13;10319751;28;20471;-52
2023/06/06 12:05:36;;;;;;;5.65;4.15;;;;;;;26.02;47.90;97790.19;10325427;28;20073;-52
2023/06/06 12:10:35;;;;;;;8.73;4.40;;;;;;;25.94;49.38;97788.00;10324849;28;20225;-52
2023/06/06 12:15:47;;;;;;;6.22;4.07;;;;;;;26.39;50.25;97786.03;10322704;28;20132;-51
2023/06/06 12:20:46;;;;;;;6.03;4.40;;;;;;;26.55;49.39;97780.59;10321291;28;20593;-53
2023/06/06 12:25:53;;;;;;;7.22;4.72;;;;;;;26.76;50.74;97763.19;10322197;28;20528;-52
2023/06/06 12:30:53;;;;;;;6.10;4.57;;;;;;;26.82;49.69;97740.66;10322644;28;20137;-54
2023/06/06 12:35:53;;;;;;;7.10;4.60;;;;;;;26.74;49.05;97758.94;10323952;28;20069;-54
2023/06/06 12:40:55;;;;;;;6.85;4.35;;;;;;;26.35;49.07;97747.31;10323501;28;20125;-52
2023/06/06 12:45:54;;;;;;;7.25;4.90;;;;;;;26.55;50.84;97752.16;10324736;28;20073;-52
2023/06/06 12:50:54;;;;;;;8.38;4.10;;;;;;;26.52;50.64;97751.53;10323605;28;20072;-51
2023/06/06 12:55:53;;;;;;;5.93;3.78;;;;;;;26.07;50.16;97762.34;10323848;28;20117;-52
2023/06/06 13:00:52;;;;;;;5.95;4.00;;;;;;;26.28;50.34;97759.31;10322768;28;20025;-51
2023/06/06 13:05:53;;;;;;;5.97;4.10;;;;;;;26.26;49.10;97756.75;10321869;28;20080;-50
2023/06/06 13:10:52;;;;;;;5.82;4.00;;;;;;;26.31;49.18;97754.63;10323710;28;20080;-53
2023/06/06 13:15:51;;;;;;;7.68;4.00;;;;;;;26.66;49.38;97734.63;10323281;28;20073;-50
2023/06/06 13:20:51;;;;;;;5.38;3.67;;;;;;;26.85;47.87;97724.47;10323230;28;20052;-52
2023/06/06 13:25:51;;;;;;;5.60;3.90;;;;;;;26.99;47.78;97737.72;10323403;28;20523;-51
2023/06/06 13:30:50;;;;;;;6.32;3.63;;;;;;;27.04;47.63;97734.72;10323439;28;20065;-52
2023/06/06 13:35:49;;;;;;;4.78;3.22;;;;;;;26.54;46.65;97699.06;10329637;28;20099;-52
2023/06/06 13:40:48;;;;;;;5.68;3.80;;;;;;;27.01;46.59;97734.09;10327780;28;20132;-52
2023/06/06 13:45:47;;;;;;;7.07;4.00;;;;;;;26.96;45.13;97727.28;10330011;28;20129;-52
2023/06/06 13:50:46;;;;;;;5.43;3.50;;;;;;;27.32;44.75;97717.69;10329718;28;20129;-52
2023/06/06 13:55:46;;;;;;;7.15;4.07;;;;;;;27.27;44.79;97709.16;10329621;28;20080;-52
2023/06/06 14:00:45;;;;;;;7.53;3.80;;;;;;;27.41;44.58;97717.03;10329779;28;20143;-52
2023/06/06 14:05:44;;;;;;;6.00;3.88;;;;;;;27.41;44.17;97722.38;10329731;28;20153;-52
2023/06/06 14:10:43;;;;;;;4.95;3.47;;;;;;;27.24;44.19;97714.72;10329853;28;20059;-52
2023/06/06 14:15:42;;;;;;;6.78;3.65;;;;;;;27.25;43.99;97708.41;10328429;28;20057;-52
2023/06/06 14:21:10;;;;;;;6.07;4.03;;;;;;;27.06;44.36;97723.97;10328849;28;20033;-53
2023/06/06 14:26:09;;;;;;;7.22;3.58;;;;;;;26.90;44.12;97725.03;10328607;28;20540;-53
2023/06/06 14:31:08;;;;;;;5.65;4.07;;;;;;;26.96;45.09;97721.09;10328965;28;20113;-52
2023/06/06 14:36:07;;;;;;;5.32;3.20;;;;;;;26.80;45.65;97718.59;10328284;28;20025;-51
2023/06/06 14:41:06;;;;;;;6.07;4.43;;;;;;;26.83;44.60;97721.06;10327921;28;20072;-53
2023/06/06 14:46:05;;;;;;;7.22;3.97;;;;;;;26.64;44.69;97712.59;10327769;28;20590;-52
2023/06/06 14:51:04;;;;;;;6.03;3.88;;;;;;;26.36;47.55;97728.56;10327633;28;20084;-50
2023/06/06 14:56:03;;;;;;;7.20;4.15;;;;;;;26.00;48.99;97731.78;10327299;28;20116;-52
2023/06/06 15:01:02;;;;;;;6.75;4.15;;;;;;;25.67;50.24;97729.47;10326207;28;20152;-52
2023/06/06 15:06:03;;;;;;;7.45;3.78;;;;;;;25.28;51.89;97728.31;10327916;28;20787;-53
2023/06/06 15:11:02;;;;;;;5.85;3.55;;;;;;;25.07;53.05;97711.88;10326477;28;20120;-53
2023/06/06 15:16:07;;;;;;;6.93;4.00;;;;;;;25.19;53.44;97716.44;10325796;28;20164;-52
2023/06/06 15:21:06;;;;;;;7.50;3.90;;;;;;;25.40;53.41;97716.06;10324335;28;20139;-53
2023/06/06 15:26:07;;;;;;;5.75;3.78;;;;;;;25.41;53.09;97720.41;10318742;28;20040;-52
2023/06/06 15:31:08;;;;;;;6.57;3.97;;;;;;;25.03;53.94;97723.63;10326018;28;20136;-52
2023/06/06 15:36:07;;;;;;;10.45;4.20;;;;;;;24.66;54.53;97697.44;10325919;28;20132;-53
2023/06/06 15:41:06;;;;;;;10.70;4.47;;;;;;;24.73;55.57;97737.75;10324888;28;20030;-52
2023/06/06 15:46:05;;;;;;;6.03;3.90;;;;;;;24.62;56.09;97734.88;10326734;28;20041;-51
2023/06/06 15:51:04;;;;;;;10.70;4.43;;;;;;;24.81;56.90;97742.59;10326984;28;20045;-52
2023/06/06 15:56:07;;;;;;;7.78;4.10;;;;;;;24.85;57.12;97746.78;10324572;28;20080;-52
2023/06/06 16:01:05;;;;;;;5.97;3.90;;;;;;;25.00;56.12;97745.91;10310690;28;20137;-51
2023/06/06 16:06:04;;;;;;;6.22;3.53;;;;;;;25.29;56.97;97744.16;10323139;28;20033;-54
2023/06/06 16:11:03;;;;;;;7.57;3.95;;;;;;;25.42;56.10;97740.75;10323567;28;20021;-52
2023/06/06 16:16:02;;;;;;;6.72;4.45;;;;;;;25.45;55.21;97751.16;10324772;28;20451;-52
2023/06/06 16:21:01;;;;;;;8.10;4.60;;;;;;;25.00;55.31;97745.03;10325247;28;20073;-53
2023/06/06 16:26:00;;;;;;;6.80;4.30;;;;;;;24.99;55.57;97748.63;10324500;28;20043;-53
2023/06/06 16:30:59;;;;;;;7.20;4.32;;;;;;;25.06;57.13;97752.66;10323935;28;20496;-50
2023/06/06 16:35:59;;;;;;;5.20;3.92;;;;;;;24.97;56.76;97758.50;10324817;28;20116;-53
2023/06/06 16:41:01;;;;;;;7.00;3.75;;;;;;;24.82;55.37;97757.56;10324506;28;20120;-51
2023/06/06 16:46:00;;;;;;;7.20;4.18;;;;;;;24.46;54.77;97745.50;10322918;28;20121;-53
2023/06/06 16:50:59;;;;;;;9.25;3.90;;;;;;;24.19;55.46;97747.91;10324392;28;20065;-53
2023/06/06 16:55:58;;;;;;;6.15;3.97;;;;;;;23.87;55.84;97728.50;10323289;28;20041;-53
2023/06/06 17:00:57;;;;;;;7.63;4.90;;;;;;;24.03;58.28;97751.41;10313053;28;20081;-53
2023/06/06 17:05:56;;;;;;;8.15;4.82;;;;;;;23.97;58.98;97759.69;10314972;28;20423;-51
2023/06/06 17:10:55;;;;;;;6.65;4.40;;;;;;;23.96;59.67;97767.72;10329814;28;20055;-51
2023/06/06 17:15:54;;;;;;;10.65;4.55;;;;;;;23.90;59.97;97760.97;10331068;28;20121;-51
2023/06/06 17:20:53;;;;;;;7.85;4.63;;;;;;;23.84;60.17;97758.66;10330630;28;20084;-52
2023/06/06 17:25:52;;;;;;;11.00;4.57;;;;;;;23.76;59.75;97760.88;10331079;28;20135;-52
2023/06/06 17:30:51;;;;;;;11.45;5.25;;;;;;;23.56;59.94;97748.69;10327668;28;20164;-52
2023/06/06 17:35:50;;;;;;;10.27;5.57;;;;;;;23.38;59.84;97769.06;10325177;28;20589;-52
2023/06/06 17:40:49;;;;;;;10.32;5.40;;;;;;;23.11;63.89;97769.53;10330143;28;20489;-53
2023/06/06 17:45:48;;;;;;;10.63;5.55;;;;;;;22.91;64.73;97759.13;10329498;28;20068;-53
2023/06/06 17:50:47;;;;;;;10.55;5.28;;;;;;;22.77;59.97;97758.03;10328057;28;20049;-54
2023/06/06 17:55:46;;;;;;;8.27;4.65;;;;;;;22.70;55.28;97763.69;10330067;28;20129;-51
2023/06/06 18:00:45;;;;;;;8.75;4.07;;;;;;;22.58;48.67;97759.88;10328806;28;20033;-52
2023/06/06 18:05:44;;;;;;;6.68;3.90;;;;;;;22.48;45.87;97772.66;10327742;28;20061;-50
2023/06/06 18:10:43;;;;;;;8.48;4.15;;;;;;;22.24;43.75;97780.00;10327258;28;20033;-52
2023/06/06 18:15:43;;;;;;;6.60;3.95;;;;;;;22.15;42.88;97783.06;10327619;28;20116;-52
2023/06/06 18:20:42;;;;;;;5.18;3.47;;;;;;;22.01;42.46;97777.59;10326044;28;20145;-51
2023/06/06 18:25:40;;;;;;;6.97;3.88;;;;;;;21.93;42.48;97791.97;10328793;28;20036;-53
2023/06/06 18:30:39;;;;;;;7.85;4.03;;;;;;;21.83;43.49;97793.34;10327763;28;20059;-52
2023/06/06 18:35:39;;;;;;;7.82;3.72;;;;;;;21.70;44.79;97787.75;10329518;28;20080;-50
2023/06/06 18:40:38;;;;;;;10.63;4.60;;;;;;;21.51;45.09;97782.44;10328112;28;20131;-51
2023/06/06 18:45:37;;;;;;;7.47;3.90;;;;;;;21.42;43.91;97803.97;10328463;28;20076;-52
2023/06/06 18:50:36;;;;;;;6.90;4.20;;;;;;;21.30;43.40;97807.16;10326930;28;20037;-52
2023/06/06 18:55:35;;;;;;;5.45;3.63;;;;;;;21.16;43.38;97815.63;10328506;28;20534;-51
2023/06/06 19:00:34;;;;;;;6.72;3.70;;;;;;;21.06;43.68;97816.97;10327473;28;20032;-50
2023/06/06 19:05:33;;;;;;;6.43;3.78;;;;;;;20.93;43.96;97806.06;10326216;28;20505;-51
2023/06/06 19:10:32;;;;;;;8.07;3.80;;;;;;;20.91;44.65;97818.44;10327116;28;20041;-52
2023/06/06 19:15:32;;;;;;;6.78;3.67;;;;;;;20.83;44.61;97826.69;10326996;28;20528;-53
2023/06/06 19:20:31;;;;;;;7.38;3.50;;;;;;;20.70;44.22;97823.69;10324105;28;20132;-53
2023/06/06 19:25:30;;;;;;;5.57;3.45;;;;;;;20.66;44.68;97830.00;10325966;28;20037;-50
2023/06/06 19:30:29;;;;;;;6.40;3.70;;;;;;;20.57;44.81;97830.38;10322876;28;20085;-50
2023/06/06 19:35:28;;;;;;;6.97;3.60;;;;;;;20.19;45.47;97776.50;10326398;28;20610;-53
2023/06/06 19:40:27;;;;;;;8.25;4.13;;;;;;;20.33;46.27;97820.75;10324642;28;20022;-52
2023/06/06 19:45:26;;;;;;;7.88;4.10;;;;;;;19.95;47.09;97773.06;10324772;28;20556;-51
2023/06/06 19:50:26;;;;;;;5.35;3.72;;;;;;;20.06;47.24;97813.03;10323479;28;20807;-52
2023/06/06 19:55:25;;;;;;;7.82;3.85;;;;;;;19.96;48.14;97809.88;10324284;28;20474;-52
2023/06/06 20:00:24;;;;;;;6.00;3.60;;;;;;;19.84;48.52;97808.56;10323934;28;20138;-52
2023/06/06 20:05:25;;;;;;;5.55;3.60;;;;;;;19.74;48.75;97804.56;10322519;28;20073;-52
2023/06/06 20:10:24;;;;;;;6.78;3.85;;;;;;;19.61;49.23;97808.56;10321446;28;20136;-51
2023/06/06 20:15:23;;;;;;;5.60;3.63;;;;;;;19.58;49.56;97806.91;10323994;28;20124;-49
2023/06/06 20:20:22;;;;;;;8.98;4.20;;;;;;;19.34;49.50;97778.81;10319275;28;20116;-54
2023/06/06 20:25:21;;;;;;;7.18;3.55;;;;;;;19.45;49.77;97809.09;10312986;28;20112;-52
2023/06/06 20:30:20;;;;;;;6.93;3.90;;;;;;;19.48;50.01;97805.47;10310298;28;20132;-52
2023/06/06 20:35:19;;;;;;;6.07;3.50;;;;;;;19.46;49.68;97815.19;10324100;28;20413;-51
2023/06/06 20:40:21;;;;;;;5.63;3.90;;;;;;;19.42;49.70;97810.97;10324730;28;20121;-50
2023/06/06 20:45:20;;;;;;;8.13;4.05;;;;;;;19.38;49.83;97806.72;10323438;28;20072;-52
2023/06/06 20:50:19;;;;;;;5.82;3.70;;;;;;;19.28;49.70;97797.47;10321886;28;20128;-53
2023/06/06 20:55:18;;;;;;;6.45;3.65;;;;;;;19.24;50.56;97801.97;10324238;28;20048;-53
2023/06/06 21:00:17;;;;;;;6.85;3.60;;;;;;;19.28;50.89;97793.06;10323190;28;20037;-51
2023/06/06 21:05:16;;;;;;;6.55;4.55;;;;;;;19.19;51.36;97798.63;10324455;28;20139;-52
2023/06/06 21:10:16;;;;;;;7.40;4.38;;;;;;;19.05;52.18;97793.84;10316383;28;20698;-49
2023/06/06 21:15:15;;;;;;;5.82;3.95;;;;;;;18.93;52.47;97784.59;10322241;28;20073;-52
2023/06/06 21:20:14;;;;;;;7.85;4.32;;;;;;;18.83;53.05;97783.22;10323631;28;20111;-52
2023/06/06 21:25:13;;;;;;;7.10;4.25;;;;;;;18.73;53.62;97787.03;10324007;28;20068;-53
2023/06/06 21:30:12;;;;;;;9.00;4.75;;;;;;;18.65;54.17;97810.06;10323164;28;20564;-52
2023/06/06 21:35:11;;;;;;;8.88;4.63;;;;;;;18.47;55.09;97809.75;10323353;28;20891;-52
2023/06/06 21:40:10;;;;;;;6.97;4.13;;;;;;;18.32;55.07;97815.50;10323777;28;20040;-50
2023/06/06 21:45:10;;;;;;;6.85;4.25;;;;;;;18.23;55.70;97824.53;10326696;28;20065;-50
2023/06/06 21:50:10;;;;;;;9.23;4.10;;;;;;;18.15;55.94;97824.75;10325410;28;20081;-52
2023/06/06 21:55:11;;;;;;;8.20;4.35;;;;;;;17.85;59.46;97820.44;10330488;28;20552;-52
2023/06/06 22:00:14;;;;;;;8.43;4.80;;;;;;;17.68;60.93;97803.38;10334142;28;20535;-49
2023/06/06 22:05:13;;;;;;;8.65;4.78;;;;;;;17.63;61.80;97805.25;10333420;28;20088;-52
2023/06/06 22:10:12;;;;;;;12.18;8.07;;;;;;;17.32;62.22;97779.88;10331706;28;20355;-49
2023/06/06 22:15:11;;;;;;;8.90;4.95;;;;;;;17.30;62.15;97797.41;10332131;28;20042;-49
2023/06/06 22:20:10;;;;;;;7.22;4.22;;;;;;;17.30;60.55;97788.69;10326888;28;20037;-52
2023/06/06 22:25:09;;;;;;;7.88;4.20;;;;;;;17.53;58.86;97785.44;10326233;28;20075;-52
2023/06/06 22:30:09;;;;;;;6.78;4.00;;;;;;;17.75;58.11;97797.03;10326529;28;20081;-49
2023/06/06 22:35:09;;;;;;;6.45;3.85;;;;;;;17.96;57.37;97798.19;10331178;28;20072;-52
2023/06/06 22:40:08;;;;;;;8.70;4.03;;;;;;;18.08;56.19;97804.84;10331314;28;20084;-52
2023/06/06 22:45:07;;;;;;;6.70;3.70;;;;;;;18.22;56.13;97808.78;10328695;28;20113;-52
2023/06/06 22:50:07;;;;;;;6.90;4.07;;;;;;;18.26;55.34;97808.66;10328100;28;20073;-50
2023/06/06 22:55:06;;;;;;;8.48;4.32;;;;;;;18.37;55.11;97789.94;10328267;28;20120;-49
2023/06/06 23:00:09;;;;;;;8.27;3.75;;;;;;;18.42;54.05;97788.00;10328151;28;20602;-50
2023/06/06 23:05:08;;;;;;;8.18;3.75;;;;;;;18.44;54.09;97794.09;10328095;28;20079;-49
2023/06/06 23:10:08;;;;;;;6.25;4.13;;;;;;;18.33;54.06;97804.06;10327829;28;20064;-51
2023/06/06 23:15:07;;;;;;;9.25;3.63;;;;;;;18.21;54.10;97802.69;10326868;28;20508;-51